Airfield :
LOGIN :

Register | Disclaimer

   EN    FR    IT 

 










Legend :    VFR   Marginal VFR   IFR   Intensive IFR   Very Intensive IFR
Visi :
Ceiling :
>= 8 km
>= 3000ft
5 to 8 km
1000 to 3000 ft
1500m to 5 km
500 to 1000 ft
800 to 1500m
200 to 500 ft
< 800m
< 200 ft
Symbols :   Thunderstorms  Fog  Heavy snow  Heavy precipitations  Wind > 20 kt
SIGMETs :     Misc.  Thunderstorms  Icing  Turbulence  Mountain Waves  Volcanic Ashes







- Airport Elevation : 36 ft
- IATA code : LTQ
- Download approach charts


LFAT - Le Touquet

CURRENT METAR :
  • 200800Z AUTO 09007KT 350V130 9000 NSC 18/10 Q1028 NOSIG

EXPIRED METARs :
  • 200730Z AUTO 00000KT CAVOK 17/09 Q1028 BECMG 06010KT
  • 200700Z AUTO 08004KT 040V140 CAVOK 15/09 Q1028 NOSIG
  • 200630Z AUTO VRB02KT 8000 NSC 13/09 Q1028 NOSIG
  • 200600Z AUTO VRB03KT 4800 BR NSC 11/08 Q1028 BECMG 9999 NSW
  • 200530Z AUTO VRB02KT 4500 BR NSC 10/07 Q1028 BECMG 9999 NSW

TAF TAF LFAT
Valid from the 20 at 06:00 until the 20 at 15:00 UTC


200500Z 2006/2015 VRB02KT 4000 BR NSC
BECMG 2006/2008 CAVOK
BECMG 2008/2011 06010KT
ATIS : +33 3 21 06 62 84
No reported NOTAMs for that airfield.



MET'MAP, your aeronautical weather chart ! - Copyright ORBIFLY December 2007 - Disclaimer

ORBIFLY MET'MAP TEAM :

Programming & Development : Alexandra Zaïnal
Concept & Development : Baudouin d'Aumeries
Co-Development & Prog : Marc-Olivier Méhu
Technical & hardware support : Manuel Goepfert

Contact : metmap@orbifly.com




SOURCES & CREDITS :

   NOAA